Biddeford, Maine
Current Conditions -  °F | °C
As of 8:51 PM on Saturday 25 Oct 2014 (Local Time) from KPWM Reporting Station
Overcast Overcast  
Wind Chill: 51°   Ceiling: 10000
Heat Index: 51°   Visibility: 10mi
Dew Point: 48°   Wind: 3mph
Humidity: 89%   Direction: 220°SW
Pressure: 29.51"   Gusts: NA
Location:  43.49°N, 70.46°W
Report Text: KPWM 260051Z 22003KT 10SM OVC100 11/09 A2951 RMK AO2 SLP993 T01060089
Loading
Personal Weather Stations






























Interactive Weather Map
Tropical Storm Tracking
New forecast layout! Learn more

10-Day Weather Forecast

Advertisements
Track Severe Weather on mobile